Aérodrome :
LOGIN :

S'inscrire | Disclaimer

   EN    FR    IT 

 










Légende :    VFR   VFR Marginal   IFR   IFR Intensif   IFR Très Intensif
Visi : 
Plafond : 
>= 8 km
>= 3000ft
5 à 8 km
1000 à 3000 ft
1500m à 5 km
500 à 1000 ft
800 à 1500m
200 à 500 ft
< 800m
< 200 ft
Symboles :   Orages  Brouillard  Fortes neiges  Fortes précipitations  Vent > 20 kt
SIGMETs :   Divers  Orages  Givrage  Turbulence  Onde Orograph.  Cendres Volcan.






- Altitude de l'aérodrome : 200 ft


EBBL - Klein Brogel AB

DERNIER METAR :
  • 150025Z AUTO VRB01KT 0150 FG NCD 18/18 Q1014 RED

METARs EXPIRÉS :
  • 142355Z AUTO 24003KT 0150 FG NCD 18/18 Q1014 RED
  • 142333Z AUTO VRB01KT 1100 BR NCD 19/18 Q1014 AMB
  • 142319Z AUTO VRB02KT 2000 BR NCD 18/17 Q1014 YLO
  • 142305Z AUTO VRB02KT 0750 BR NCD 19/18 Q1014 RED
  • 142255Z AUTO 24003KT 1000 BR NCD 19/18 Q1014 AMB
  • 142240Z AUTO VRB01KT 1400 BR FEW110/// 20/18 Q1014 AMB
  • 142225Z AUTO VRB01KT 1800 BR SCT100/// 20/19 Q1014 YLO
  • 142216Z AUTO VRB02KT 3300 BR OVC087/// 20/18 Q1014 YLO
  • 142155Z AUTO VRB01KT 6000 -DZ BKN087/// 20/19 Q1014 WHT

TAF TAF EBBL
Valide du 14 à 19h jusqu'au 15 à 07h UTC


141541Z 1419/1507 22006KT 9999 FEW040 SCT120
TEMPO 1419/1500 22010G25KT 5000 -SHRA FEW013 BKN040TCU
PROB40
TEMPO 1419/1500 VRB20G30KT 3000 TSRA SCT010 BKN030CB
TEMPO 1501/1506 27003KT 4000 BR
PROB30
TEMPO 1501/1506 2000 BR



MET'MAP, la Météo Aéronautique d'un coup d'oeil ! - Copyright ORBIFLY Décembre 2007 - Disclaimer

ORBIFLY MET'MAP TEAM :

Programmation & Développement : Alexandra Zaïnal
Sur une idée originale de : Baudouin d'Aumeries
Assistance à la programmation : Marc-Olivier Méhu
Soutien technique & logistique : Manuel Goepfert

Contact : metmap@orbifly.com




SOURCES & CREDITS :

   NOAA